Time;durP1;ratioP1;P1;durP2;ratioP2;P2;SDS_P1;SDS_P2;PMS_P1;PMS_P2;Temp;Humidity;BMP_temperature;BMP_pressure;BME280_temperature;BME280_humidity;BME280_pressure;Samples;Min_cycle;Max_cycle;Signal;HPM_P1;HPM_P2
2022/06/09 00:02:24;;;;;;;7.55;4.80;;;;;;;;;;5097212;28;20044;-84
2022/06/09 00:05:12;;;;;;;8.88;4.95;;;;;;;;;;5097240;28;20044;-83
2022/06/09 00:08:01;;;;;;;10.40;5.15;;;;;;;;;;5097219;28;20044;-83
2022/06/09 00:10:56;;;;;;;9.00;4.95;;;;;;;;;;5097031;28;20110;-84
2022/06/09 00:13:41;;;;;;;6.53;4.80;;;;;;;;;;5097393;28;20044;-84
2022/06/09 00:16:26;;;;;;;8.02;4.80;;;;;;;;;;5104536;28;20052;-83
2022/06/09 00:19:13;;;;;;;6.80;4.95;;;;;;;;;;5097019;28;20472;-84
2022/06/09 00:21:58;;;;;;;22.35;5.20;;;;;;;;;;5097266;28;20400;-84
2022/06/09 00:24:44;;;;;;;9.80;4.38;;;;;;;;;;5097190;28;20040;-82
2022/06/09 00:27:29;;;;;;;14.18;5.20;;;;;;;;;;5103982;28;20416;-82
2022/06/09 00:30:16;;;;;;;12.50;4.70;;;;;;;;;;5088529;28;20043;-83
2022/06/09 00:33:02;;;;;;;8.07;4.53;;;;;;;;;;5097036;28;20032;-83
2022/06/09 00:35:47;;;;;;;17.52;5.10;;;;;;;;;;5096780;28;20048;-83
2022/06/09 00:38:33;;;;;;;9.02;5.10;;;;;;;;;;5096843;28;20040;-83
2022/06/09 00:41:18;;;;;;;11.35;5.20;;;;;;;;;;5081237;28;20040;-83
2022/06/09 00:44:24;;;;;;;9.02;4.95;;;;;;;;;;5096693;28;20032;-82
2022/06/09 00:47:29;;;;;;;11.38;4.90;;;;;;;;;;5096543;28;20389;-82
2022/06/09 00:50:17;;;;;;;9.93;4.90;;;;;;;;;;5096960;28;20047;-82
2022/06/09 00:53:07;;;;;;;8.50;4.80;;;;;;;;;;5081433;28;20044;-82
2022/06/09 00:55:55;;;;;;;9.10;5.20;;;;;;;;;;5096769;28;20044;-83
2022/06/09 00:58:46;;;;;;;8.10;5.07;;;;;;;;;;5096727;28;20048;-83
2022/06/09 01:01:33;;;;;;;8.05;5.60;;;;;;;;;;5103816;28;20036;-83
2022/06/09 01:04:22;;;;;;;23.23;6.10;;;;;;;;;;5103217;28;20044;-83
2022/06/09 01:07:18;;;;;;;12.98;5.45;;;;;;;;;;5095854;28;20044;-83
2022/06/09 01:10:05;;;;;;;10.93;5.57;;;;;;;;;;5096751;28;20377;-83
2022/06/09 01:12:51;;;;;;;11.20;5.90;;;;;;;;;;5096174;28;20040;-83
2022/06/09 01:15:55;;;;;;;7.30;5.25;;;;;;;;;;5096153;28;20048;-83
2022/06/09 01:23:18;;;;;;;6.55;4.88;;;;;;;;;;5057748;27;2055855;-83
2022/06/09 01:26:25;;;;;;;8.05;5.35;;;;;;;;;;5115366;22;20049;-83
2022/06/09 01:29:41;;;;;;;15.43;6.18;;;;;;;;;;5091943;28;20052;-82
2022/06/09 01:32:35;;;;;;;13.75;8.18;;;;;;;;;;5091197;28;20056;-82
2022/06/09 01:35:26;;;;;;;24.27;9.25;;;;;;;;;;5098529;28;20388;-83
2022/06/09 01:38:12;;;;;;;22.27;8.52;;;;;;;;;;5092128;28;20041;-83
2022/06/09 01:40:57;;;;;;;14.80;7.70;;;;;;;;;;5091032;28;20041;-83
2022/06/09 01:43:46;;;;;;;16.10;7.82;;;;;;;;;;5092079;28;20048;-82
2022/06/09 01:46:35;;;;;;;20.30;7.85;;;;;;;;;;5090869;28;20040;-83
2022/06/09 01:49:26;;;;;;;19.15;7.68;;;;;;;;;;5091384;28;20048;-82
2022/06/09 01:52:11;;;;;;;20.50;7.88;;;;;;;;;;5092274;28;20048;-82
2022/06/09 01:54:59;;;;;;;48.80;8.48;;;;;;;;;;5091143;28;20052;-82
2022/06/09 01:57:49;;;;;;;53.45;9.48;;;;;;;;;;5091066;28;20400;-82
2022/06/09 02:00:36;;;;;;;40.15;8.35;;;;;;;;;;5097283;28;20397;-82
2022/06/09 02:03:28;;;;;;;55.08;9.48;;;;;;;;;;5090841;28;20397;-81
2022/06/09 02:06:14;;;;;;;45.15;9.57;;;;;;;;;;5097490;28;20040;-82
2022/06/09 02:09:04;;;;;;;39.72;9.02;;;;;;;;;;5090434;28;20040;-82
2022/06/09 02:11:53;;;;;;;46.83;9.43;;;;;;;;;;5090874;28;20477;-82
2022/06/09 02:14:42;;;;;;;42.47;9.20;;;;;;;;;;5097719;28;20044;-82
2022/06/09 02:17:28;;;;;;;49.72;9.93;;;;;;;;;;5090673;28;20056;-82
2022/06/09 02:20:16;;;;;;;68.00;10.00;;;;;;;;;;5090666;28;20041;-81
2022/06/09 02:23:03;;;;;;;74.10;10.43;;;;;;;;;;5090122;28;20036;-81
2022/06/09 02:25:48;;;;;;;40.50;11.60;;;;;;;;;;5091193;28;20048;-82
2022/06/09 02:28:34;;;;;;;34.53;11.75;;;;;;;;;;5091055;28;20044;-82
2022/06/09 02:31:21;;;;;;;25.20;11.68;;;;;;;;;;5078836;28;20052;-81
2022/06/09 02:34:09;;;;;;;42.85;13.13;;;;;;;;;;5077578;28;20049;-82
2022/06/09 02:36:53;;;;;;;29.13;12.32;;;;;;;;;;5076649;28;20040;-82
2022/06/09 02:39:39;;;;;;;31.45;13.10;;;;;;;;;;5076710;28;20040;-81
2022/06/09 02:42:25;;;;;;;29.75;10.23;;;;;;;;;;5084054;28;20044;-82
2022/06/09 02:45:14;;;;;;;39.10;11.00;;;;;;;;;;5076517;28;20040;-81
2022/06/09 02:48:01;;;;;;;44.80;11.40;;;;;;;;;;5077228;28;20485;-82
2022/06/09 02:50:47;;;;;;;32.80;12.40;;;;;;;;;;5083090;28;20040;-82
2022/06/09 02:53:32;;;;;;;45.97;13.43;;;;;;;;;;5077026;28;20040;-82
2022/06/09 02:56:17;;;;;;;50.13;14.13;;;;;;;;;;5083564;28;20048;-82
2022/06/09 02:59:03;;;;;;;27.27;13.60;;;;;;;;;;5075583;28;20044;-82
2022/06/09 03:01:48;;;;;;;25.05;12.90;;;;;;;;;;5083101;28;20036;-82
2022/06/09 03:04:33;;;;;;;43.25;14.07;;;;;;;;;;5076006;28;20048;-82
2022/06/09 03:07:19;;;;;;;38.25;13.50;;;;;;;;;;5075958;28;20481;-82
2022/06/09 03:10:05;;;;;;;29.58;13.15;;;;;;;;;;5076937;28;20389;-81
2022/06/09 03:12:50;;;;;;;28.58;13.10;;;;;;;;;;5075510;28;20041;-81
2022/06/09 03:15:36;;;;;;;49.25;12.43;;;;;;;;;;5082650;28;20048;-81
2022/06/09 03:18:22;;;;;;;21.70;11.95;;;;;;;;;;5076080;28;20389;-82
2022/06/09 03:21:09;;;;;;;24.95;13.60;;;;;;;;;;5075897;28;20049;-81
2022/06/09 03:23:57;;;;;;;25.08;13.55;;;;;;;;;;5076162;28;20485;-81
2022/06/09 03:26:42;;;;;;;21.25;14.20;;;;;;;;;;5075941;28;20045;-82
2022/06/09 03:29:28;;;;;;;21.73;13.38;;;;;;;;;;5076020;28;20048;-82
2022/06/09 03:32:13;;;;;;;28.92;13.32;;;;;;;;;;5075695;28;20044;-82
2022/06/09 03:34:59;;;;;;;28.92;13.05;;;;;;;;;;5081698;28;20041;-81
2022/06/09 03:37:44;;;;;;;23.80;13.50;;;;;;;;;;5075675;28;20048;-82
2022/06/09 03:40:30;;;;;;;20.38;12.00;;;;;;;;;;5074549;28;20052;-82
2022/06/09 03:43:15;;;;;;;20.75;13.30;;;;;;;;;;5059485;28;20044;-82
2022/06/09 03:46:01;;;;;;;22.23;12.55;;;;;;;;;;5075626;28;20040;-82
2022/06/09 03:48:47;;;;;;;21.50;13.00;;;;;;;;;;5081727;28;20052;-82
2022/06/09 03:51:33;;;;;;;19.08;12.52;;;;;;;;;;5075358;28;20040;-82
2022/06/09 03:54:19;;;;;;;22.75;12.48;;;;;;;;;;5074768;28;20044;-82
2022/06/09 03:57:05;;;;;;;18.80;12.05;;;;;;;;;;5074969;28;20052;-82
2022/06/09 03:59:50;;;;;;;29.00;12.38;;;;;;;;;;5059519;28;20485;-81
2022/06/09 04:02:36;;;;;;;19.77;11.77;;;;;;;;;;5074373;28;20045;-82
2022/06/09 04:05:22;;;;;;;39.28;13.88;;;;;;;;;;5074806;28;20044;-80
2022/06/09 04:08:10;;;;;;;16.67;10.38;;;;;;;;;;5074809;28;20040;-80
2022/06/09 04:10:56;;;;;;;17.92;11.88;;;;;;;;;;5074567;28;20037;-80
2022/06/09 04:13:41;;;;;;;14.18;10.20;;;;;;;;;;5074512;28;20037;-81
2022/06/09 04:16:36;;;;;;;20.60;12.05;;;;;;;;;;5074053;28;20045;-80
2022/06/09 04:19:22;;;;;;;23.95;10.65;;;;;;;;;;5074015;28;20044;-80
2022/06/09 04:22:07;;;;;;;16.25;10.25;;;;;;;;;;5074460;28;20049;-80
2022/06/09 04:24:52;;;;;;;15.85;10.73;;;;;;;;;;5071829;28;20049;-80
2022/06/09 04:27:39;;;;;;;23.13;10.60;;;;;;;;;;5054423;28;20501;-80
2022/06/09 04:30:24;;;;;;;18.05;10.95;;;;;;;;;;5053802;28;20401;-81
2022/06/09 04:33:10;;;;;;;16.58;11.15;;;;;;;;;;5060965;28;20045;-80
2022/06/09 04:35:55;;;;;;;21.50;10.88;;;;;;;;;;5053739;28;20412;-81
2022/06/09 04:38:42;;;;;;;19.40;9.95;;;;;;;;;;5053490;28;20048;-81
2022/06/09 04:41:27;;;;;;;18.42;10.35;;;;;;;;;;5060775;28;20057;-82
2022/06/09 04:44:12;;;;;;;16.40;10.55;;;;;;;;;;5053774;28;20045;-81
2022/06/09 04:46:58;;;;;;;20.75;10.75;;;;;;;;;;5054530;28;20045;-82
2022/06/09 04:49:43;;;;;;;17.92;11.25;;;;;;;;;;5054316;28;20049;-82
2022/06/09 04:52:29;;;;;;;12.32;9.75;;;;;;;;;;5060119;28;20041;-83
2022/06/09 04:55:15;;;;;;;20.85;10.50;;;;;;;;;;5054233;28;20386;-84
2022/06/09 04:58:01;;;;;;;11.65;9.13;;;;;;;;;;5054549;28;20049;-83
2022/06/09 05:00:46;;;;;;;20.65;10.38;;;;;;;;;;5060701;28;20490;-82
2022/06/09 05:03:32;;;;;;;13.23;9.65;;;;;;;;;;5054689;28;20044;-83
2022/06/09 05:06:19;;;;;;;14.20;8.68;;;;;;;;;;5053634;28;20041;-82
2022/06/09 05:09:04;;;;;;;12.63;8.75;;;;;;;;;;5060915;28;20265;-82
2022/06/09 05:11:49;;;;;;;11.15;7.45;;;;;;;;;;5054267;28;20057;-83
2022/06/09 05:14:35;;;;;;;10.65;8.13;;;;;;;;;;5058956;28;20052;-83
2022/06/09 05:17:20;;;;;;;8.48;7.22;;;;;;;;;;5054573;28;20382;-83
2022/06/09 05:20:07;;;;;;;10.18;7.70;;;;;;;;;;5053397;28;20045;-84
2022/06/09 05:22:53;;;;;;;12.25;7.30;;;;;;;;;;5053900;28;20036;-83
2022/06/09 05:25:38;;;;;;;9.40;7.05;;;;;;;;;;5057402;28;20061;-84
2022/06/09 05:28:25;;;;;;;9.38;7.03;;;;;;;;;;5053079;28;20045;-83
2022/06/09 05:31:10;;;;;;;11.40;7.22;;;;;;;;;;5052680;28;20045;-83
2022/06/09 05:33:56;;;;;;;11.20;7.13;;;;;;;;;;5053398;28;20033;-83
2022/06/09 05:36:41;;;;;;;10.50;7.07;;;;;;;;;;5059935;28;20053;-83
2022/06/09 05:45:36;;;;;;;11.45;8.55;;;;;;;;;;5060402;28;20053;-83
2022/06/09 05:48:22;;;;;;;17.73;8.02;;;;;;;;;;5053120;28;20037;-83
2022/06/09 05:51:08;;;;;;;12.25;7.72;;;;;;;;;;5053377;28;20052;-83
2022/06/09 05:53:53;;;;;;;10.50;8.05;;;;;;;;;;5060110;28;20044;-83
2022/06/09 05:56:39;;;;;;;15.35;8.00;;;;;;;;;;5059288;28;20052;-83
2022/06/09 05:59:24;;;;;;;13.43;8.43;;;;;;;;;;5059965;28;20041;-82
2022/06/09 06:02:10;;;;;;;12.93;7.43;;;;;;;;;;5053427;28;20053;-83
2022/06/09 06:04:55;;;;;;;14.57;7.53;;;;;;;;;;5058876;28;20049;-83
2022/06/09 06:07:41;;;;;;;14.18;8.00;;;;;;;;;;5057217;28;20044;-83
2022/06/09 06:10:27;;;;;;;14.80;7.65;;;;;;;;;;5056694;28;20477;-83
2022/06/09 06:13:13;;;;;;;10.55;6.75;;;;;;;;;;5063759;28;20045;-83
2022/06/09 06:15:58;;;;;;;9.70;6.47;;;;;;;;;;5057237;28;20049;-83
2022/06/09 06:18:43;;;;;;;12.90;5.90;;;;;;;;;;5056391;28;20052;-83
2022/06/09 06:21:29;;;;;;;9.35;5.72;;;;;;;;;;5056058;28;20049;-83
2022/06/09 06:24:16;;;;;;;12.27;6.10;;;;;;;;;;5056226;28;20045;-83
2022/06/09 06:27:01;;;;;;;12.93;6.07;;;;;;;;;;5061204;28;20410;-83
2022/06/09 06:29:45;;;;;;;7.63;5.93;;;;;;;;;;5076644;28;20045;-82
2022/06/09 06:32:31;;;;;;;13.95;6.40;;;;;;;;;;5082751;28;20477;-82
2022/06/09 06:35:17;;;;;;;14.63;5.90;;;;;;;;;;5076826;28;20044;-82
2022/06/09 06:38:02;;;;;;;10.43;5.60;;;;;;;;;;5076524;28;20053;-83
2022/06/09 06:40:49;;;;;;;8.98;5.35;;;;;;;;;;5083031;28;20040;-83
2022/06/09 06:43:34;;;;;;;6.60;4.90;;;;;;;;;;5076876;28;20041;-82
2022/06/09 06:46:20;;;;;;;6.57;4.63;;;;;;;;;;5076027;28;20397;-82
2022/06/09 06:49:05;;;;;;;9.60;5.13;;;;;;;;;;5076724;28;20044;-82
2022/06/09 06:51:51;;;;;;;10.52;5.07;;;;;;;;;;5082945;28;20045;-82
2022/06/09 06:54:37;;;;;;;7.47;4.90;;;;;;;;;;5076029;28;20045;-81
2022/06/09 06:57:22;;;;;;;8.98;4.72;;;;;;;;;;5076193;28;20056;-81
2022/06/09 07:00:11;;;;;;;12.05;4.95;;;;;;;;;;5075434;28;20234;-81
2022/06/09 07:02:57;;;;;;;8.00;4.55;;;;;;;;;;5076549;28;20057;-82
2022/06/09 07:05:42;;;;;;;6.82;4.57;;;;;;;;;;5082546;28;20040;-81
2022/06/09 07:08:28;;;;;;;5.93;3.90;;;;;;;;;;5075157;28;20040;-79
2022/06/09 07:11:13;;;;;;;8.35;3.00;;;;;;;;;;5075704;28;20052;-81
2022/06/09 07:13:59;;;;;;;8.57;2.20;;;;;;;;;;5075359;28;20040;-81
2022/06/09 07:16:44;;;;;;;4.80;2.60;;;;;;;;;;5082497;28;20048;-81
2022/06/09 07:19:30;;;;;;;9.68;2.80;;;;;;;;;;5082380;28;20040;-81
2022/06/09 07:22:16;;;;;;;3.00;2.50;;;;;;;;;;5075344;28;20045;-82
2022/06/09 07:25:02;;;;;;;5.55;2.42;;;;;;;;;;5081423;28;20041;-82
2022/06/09 07:27:48;;;;;;;4.10;2.60;;;;;;;;;;5075485;28;20052;-83
2022/06/09 07:30:33;;;;;;;9.88;3.00;;;;;;;;;;5075726;28;20045;-82
2022/06/09 07:33:19;;;;;;;8.63;3.28;;;;;;;;;;5075420;28;20037;-82
2022/06/09 07:36:10;;;;;;;5.00;2.75;;;;;;;;;;5074850;28;20040;-81
2022/06/09 07:38:55;;;;;;;9.85;3.30;;;;;;;;;;5081987;28;20040;-81
2022/06/09 07:41:40;;;;;;;9.20;3.45;;;;;;;;;;5075173;28;20049;-82
2022/06/09 07:44:26;;;;;;;3.88;2.55;;;;;;;;;;5075074;28;20048;-80
2022/06/09 07:47:12;;;;;;;4.28;2.95;;;;;;;;;;5074969;28;20052;-80
2022/06/09 07:49:58;;;;;;;4.80;2.42;;;;;;;;;;5075006;28;20040;-80
2022/06/09 07:52:44;;;;;;;3.42;2.38;;;;;;;;;;5075050;28;20045;-81
2022/06/09 07:55:30;;;;;;;3.83;2.25;;;;;;;;;;5075092;28;20040;-80
2022/06/09 07:58:17;;;;;;;4.75;2.58;;;;;;;;;;5074614;28;20041;-81
2022/06/09 08:01:02;;;;;;;9.52;3.20;;;;;;;;;;5074768;28;20040;-81
2022/06/09 08:03:49;;;;;;;6.55;2.55;;;;;;;;;;5074438;28;20048;-77
2022/06/09 08:06:34;;;;;;;5.57;2.50;;;;;;;;;;5074826;28;20045;-78
2022/06/09 08:09:19;;;;;;;7.25;2.20;;;;;;;;;;5074790;28;20052;-78
2022/06/09 08:12:06;;;;;;;8.18;2.08;;;;;;;;;;5073926;28;20048;-77
2022/06/09 08:14:51;;;;;;;4.78;2.25;;;;;;;;;;5074548;28;20044;-78
2022/06/09 08:17:38;;;;;;;4.30;2.53;;;;;;;;;;5074134;28;20049;-78
2022/06/09 08:20:24;;;;;;;2.72;2.50;;;;;;;;;;5074180;28;20409;-78
2022/06/09 08:23:16;;;;;;;6.53;2.80;;;;;;;;;;5081901;28;20044;-77
2022/06/09 08:26:05;;;;;;;8.30;2.53;;;;;;;;;;5077538;28;20040;-79
2022/06/09 08:28:51;;;;;;;5.45;2.45;;;;;;;;;;5081125;28;20032;-85
2022/06/09 08:31:36;;;;;;;4.93;2.58;;;;;;;;;;5066167;28;20473;-83
2022/06/09 08:34:22;;;;;;;5.35;2.42;;;;;;;;;;5065222;28;20037;-85
2022/06/09 08:37:07;;;;;;;4.20;2.38;;;;;;;;;;5074407;28;20501;-83
2022/06/09 08:39:53;;;;;;;3.75;2.42;;;;;;;;;;5073414;28;20493;-86
2022/06/09 08:42:48;;;;;;;3.22;2.17;;;;;;;;;;5074407;28;20037;-84
2022/06/09 08:45:37;;;;;;;2.40;1.88;;;;;;;;;;5073757;28;20390;-85
2022/06/09 08:48:32;;;;;;;6.78;2.80;;;;;;;;;;5065113;28;20484;-84
2022/06/09 08:51:36;;;;;;;6.32;2.42;;;;;;;;;;5057134;28;20497;-83
2022/06/09 08:54:27;;;;;;;5.53;2.15;;;;;;;;;;5064904;28;20044;-81
2022/06/09 08:57:44;;;;;;;5.22;2.45;;;;;;;;;;5073643;28;20044;-86
2022/06/09 09:00:36;;;;;;;3.53;2.08;;;;;;;;;;5063589;28;20053;-83
2022/06/09 09:03:36;;;;;;;2.95;2.20;;;;;;;;;;5071747;28;20037;-82
2022/06/09 09:06:33;;;;;;;6.55;2.45;;;;;;;;;;5071311;28;20044;-84
2022/06/09 09:09:26;;;;;;;4.60;2.30;;;;;;;;;;5071582;28;20052;-84
2022/06/09 09:12:32;;;;;;;4.55;2.67;;;;;;;;;;5064098;28;20048;-83
2022/06/09 09:15:23;;;;;;;7.95;2.60;;;;;;;;;;5069931;28;20040;-84
2022/06/09 09:18:30;;;;;;;3.20;2.50;;;;;;;;;;5064751;28;20048;-84
2022/06/09 09:21:54;;;;;;;5.80;2.45;;;;;;;;;;5073233;28;20041;-84
2022/06/09 09:24:54;;;;;;;4.82;2.67;;;;;;;;;;5056249;28;20052;-84
2022/06/09 09:27:57;;;;;;;4.18;2.30;;;;;;;;;;5065110;28;20040;-79
2022/06/09 09:30:59;;;;;;;5.60;2.60;;;;;;;;;;5073119;28;20041;-82
2022/06/09 09:33:45;;;;;;;3.65;2.50;;;;;;;;;;5073169;28;20040;-83
2022/06/09 09:36:37;;;;;;;6.18;2.80;;;;;;;;;;5080180;28;20048;-78
2022/06/09 09:39:30;;;;;;;3.30;2.38;;;;;;;;;;5079352;28;20040;-79
2022/06/09 09:42:24;;;;;;;4.78;2.40;;;;;;;;;;5077336;28;20044;-79
2022/06/09 09:45:10;;;;;;;5.10;2.20;;;;;;;;;;5077150;28;20052;-80
2022/06/09 09:47:59;;;;;;;7.10;2.15;;;;;;;;;;5077202;28;20481;-78
2022/06/09 09:51:11;;;;;;;4.40;2.78;;;;;;;;;;5077084;28;20044;-79
2022/06/09 09:53:57;;;;;;;5.57;2.42;;;;;;;;;;5082673;28;20037;-80
2022/06/09 09:56:43;;;;;;;4.10;2.13;;;;;;;;;;5083655;28;20048;-78
2022/06/09 09:59:28;;;;;;;2.63;1.88;;;;;;;;;;5076751;28;20048;-79
2022/06/09 10:08:45;;;;;;;5.70;2.45;;;;;;;;;;5076881;28;20480;-78
2022/06/09 10:11:53;;;;;;;4.05;2.30;;;;;;;;;;5083411;28;20048;-79
2022/06/09 10:15:02;;;;;;;5.47;2.30;;;;;;;;;;5076526;28;20400;-79
2022/06/09 10:18:03;;;;;;;4.70;2.40;;;;;;;;;;5075783;28;20057;-81
2022/06/09 10:21:10;;;;;;;4.00;2.40;;;;;;;;;;5068232;28;20045;-80
2022/06/09 10:24:01;;;;;;;4.55;2.20;;;;;;;;;;5083659;28;20485;-78
2022/06/09 10:26:51;;;;;;;6.15;2.50;;;;;;;;;;5075982;28;20044;-79
2022/06/09 10:29:53;;;;;;;3.03;2.20;;;;;;;;;;5083565;28;20048;-77
2022/06/09 10:32:49;;;;;;;3.17;2.30;;;;;;;;;;5083021;28;20048;-78
2022/06/09 10:35:33;;;;;;;;;;;;;;;;;;5083602;28;20052;-78
2022/06/09 10:38:28;;;;;;;3.53;2.30;;;;;;;;;;5077037;28;19913;-77
2022/06/09 10:41:30;;;;;;;5.30;1.80;;;;;;;;;;5083575;28;20044;-78
2022/06/09 10:44:19;;;;;;;3.72;2.00;;;;;;;;;;5076589;28;20381;-79
2022/06/09 10:57:40;;;;;;;1.77;1.50;;;;;;;;;;5076836;28;20040;-77
2022/06/09 11:00:41;;;;;;;8.85;1.80;;;;;;;;;;5077208;28;20040;-78
2022/06/09 11:03:40;;;;;;;4.97;1.88;;;;;;;;;;5076847;28;20052;-79
2022/06/09 11:06:29;;;;;;;5.40;1.80;;;;;;;;;;5076674;28;20041;-79
2022/06/09 11:09:17;;;;;;;2.45;1.63;;;;;;;;;;5076456;28;20401;-78
2022/06/09 11:12:13;;;;;;;1.83;1.60;;;;;;;;;;5076604;28;20045;-80
2022/06/09 11:15:19;;;;;;;3.05;1.70;;;;;;;;;;5083108;28;20041;-77
2022/06/09 11:18:35;;;;;;;3.20;1.42;;;;;;;;;;5082954;28;20049;-78
2022/06/09 11:21:33;;;;;;;2.22;1.48;;;;;;;;;;5076146;28;20056;-77
2022/06/09 11:24:39;;;;;;;5.20;1.80;;;;;;;;;;5077597;28;20056;-77
2022/06/09 11:27:49;;;;;;;4.70;2.15;;;;;;;;;;5075639;28;20040;-76
2022/06/09 11:30:53;;;;;;;2.75;1.65;;;;;;;;;;5082338;28;20458;-76
2022/06/09 11:34:03;;;;;;;2.05;1.63;;;;;;;;;;5082976;28;20037;-77
2022/06/09 11:36:56;;;;;;;2.17;1.67;;;;;;;;;;5076014;28;20055;-78
2022/06/09 11:39:45;;;;;;;2.58;1.90;;;;;;;;;;5082163;28;20045;-77
2022/06/09 11:42:42;;;;;;;2.97;1.73;;;;;;;;;;5075525;28;20393;-76
2022/06/09 11:45:32;;;;;;;6.28;1.70;;;;;;;;;;5082020;28;20048;-76
2022/06/09 11:48:30;;;;;;;4.13;1.77;;;;;;;;;;5074787;28;20400;-76
2022/06/09 11:51:18;;;;;;;4.95;1.80;;;;;;;;;;5059729;28;20044;-77
2022/06/09 11:54:07;;;;;;;4.75;1.50;;;;;;;;;;5081145;28;20044;-77
2022/06/09 11:57:21;;;;;;;2.70;1.50;;;;;;;;;;5074934;28;20048;-76
2022/06/09 12:00:19;;;;;;;4.50;1.70;;;;;;;;;;5074922;28;20048;-77
2022/06/09 12:03:23;;;;;;;3.63;1.70;;;;;;;;;;5074167;28;20045;-76
2022/06/09 12:06:26;;;;;;;1.98;1.50;;;;;;;;;;5081816;28;20405;-76
2022/06/09 12:09:18;;;;;;;5.80;2.00;;;;;;;;;;5075040;28;20041;-76
2022/06/09 12:12:27;;;;;;;7.25;2.08;;;;;;;;;;5074249;28;20048;-77
2022/06/09 12:15:33;;;;;;;3.15;1.85;;;;;;;;;;5060254;28;20393;-76
2022/06/09 12:18:19;;;;;;;4.57;2.03;;;;;;;;;;5074534;28;20044;-76
2022/06/09 12:21:12;;;;;;;4.93;1.92;;;;;;;;;;5074165;28;20045;-77
2022/06/09 12:24:02;;;;;;;5.22;1.90;;;;;;;;;;5074133;28;20477;-77
2022/06/09 12:26:55;;;;;;;6.03;2.22;;;;;;;;;;5073456;28;20442;-77
2022/06/09 12:29:45;;;;;;;3.03;1.60;;;;;;;;;;5080868;28;20048;-77
2022/06/09 12:32:38;;;;;;;5.03;2.10;;;;;;;;;;5074668;28;20048;-76
2022/06/09 12:35:34;;;;;;;3.87;1.90;;;;;;;;;;5074867;28;20044;-77
2022/06/09 12:38:38;;;;;;;5.60;1.60;;;;;;;;;;5059070;28;20513;-76
2022/06/09 12:41:33;;;;;;;4.00;2.00;;;;;;;;;;5073460;28;20044;-75
2022/06/09 12:44:22;;;;;;;4.03;1.60;;;;;;;;;;5074222;28;20385;-77
2022/06/09 12:47:21;;;;;;;3.63;1.80;;;;;;;;;;5080138;28;20124;-78
2022/06/09 12:50:58;;;;;;;6.18;2.10;;;;;;;;;;5074333;28;20044;-77
2022/06/09 12:53:56;;;;;;;3.33;1.83;;;;;;;;;;5056123;28;20041;-79
2022/06/09 12:56:44;;;;;;;7.32;1.58;;;;;;;;;;5075095;28;20048;-79
2022/06/09 12:59:38;;;;;;;4.38;1.95;;;;;;;;;;5075097;28;20045;-80
2022/06/09 13:02:27;;;;;;;5.20;1.90;;;;;;;;;;5074576;28;20044;-79
2022/06/09 13:05:12;;;;;;;2.90;1.70;;;;;;;;;;5081181;28;20269;-78
2022/06/09 13:08:04;;;;;;;4.63;1.85;;;;;;;;;;5082127;28;20040;-79
2022/06/09 13:11:00;;;;;;;5.05;1.65;;;;;;;;;;5082953;28;20041;-79
2022/06/09 13:13:46;;;;;;;2.13;1.60;;;;;;;;;;5081015;28;20045;-78
2022/06/09 13:16:34;;;;;;;5.90;1.60;;;;;;;;;;5081041;28;20481;-79
2022/06/09 13:19:23;;;;;;;5.90;2.00;;;;;;;;;;5075702;28;20040;-81
2022/06/09 13:22:14;;;;;;;3.53;1.83;;;;;;;;;;5075981;28;20049;-81
2022/06/09 13:25:00;;;;;;;5.03;2.08;;;;;;;;;;5077548;28;20056;-80
2022/06/09 13:27:48;;;;;;;5.65;2.10;;;;;;;;;;5081415;28;20052;-81
2022/06/09 13:30:48;;;;;;;3.53;1.80;;;;;;;;;;5075840;28;20045;-80
2022/06/09 13:33:59;;;;;;;5.20;1.67;;;;;;;;;;5082466;28;20037;-81
2022/06/09 13:37:14;;;;;;;4.38;1.88;;;;;;;;;;5081836;28;20041;-81
2022/06/09 13:40:11;;;;;;;;;;;;;;;;;;5062631;28;20052;-80
2022/06/09 13:43:00;;;;;;;7.35;1.73;;;;;;;;;;5076875;28;20372;-81
2022/06/09 13:45:55;;;;;;;7.65;2.20;;;;;;;;;;5083072;28;20044;-82
2022/06/09 13:48:46;;;;;;;3.15;1.90;;;;;;;;;;5059824;28;20044;-83
2022/06/09 13:51:57;;;;;;;6.25;1.85;;;;;;;;;;5074199;28;20044;-82
2022/06/09 13:54:48;;;;;;;2.47;1.77;;;;;;;;;;5081221;28;20044;-83
2022/06/09 13:57:38;;;;;;;7.68;1.90;;;;;;;;;;5073456;28;20041;-79
2022/06/09 14:00:28;;;;;;;4.07;1.90;;;;;;;;;;5080430;28;20041;-78
2022/06/09 14:03:22;;;;;;;4.63;2.38;;;;;;;;;;5080162;28;20037;-79
2022/06/09 14:06:15;;;;;;;3.45;1.90;;;;;;;;;;5073616;28;20393;-78
2022/06/09 14:09:00;;;;;;;8.13;2.30;;;;;;;;;;5079691;28;20032;-79
2022/06/09 14:11:45;;;;;;;5.93;1.80;;;;;;;;;;5073083;28;20041;-79
2022/06/09 14:14:31;;;;;;;4.20;1.88;;;;;;;;;;5073090;28;20045;-79
2022/06/09 14:17:24;;;;;;;5.47;2.00;;;;;;;;;;5079837;28;20044;-79
2022/06/09 14:20:15;;;;;;;4.97;2.03;;;;;;;;;;5079797;28;20045;-80
2022/06/09 14:23:01;;;;;;;4.07;1.98;;;;;;;;;;5080054;28;20044;-78
2022/06/09 14:25:48;;;;;;;2.42;1.88;;;;;;;;;;5072778;28;20486;-79
2022/06/09 14:28:35;;;;;;;6.07;2.38;;;;;;;;;;5077015;28;20036;-79
2022/06/09 14:31:22;;;;;;;9.32;2.20;;;;;;;;;;5083372;28;20040;-79
2022/06/09 14:34:08;;;;;;;6.82;2.30;;;;;;;;;;5076888;28;20044;-79
2022/06/09 14:36:54;;;;;;;4.53;2.13;;;;;;;;;;5076754;28;20041;-78
2022/06/09 14:39:40;;;;;;;5.72;2.20;;;;;;;;;;5083130;28;20040;-78
2022/06/09 14:42:26;;;;;;;8.73;2.22;;;;;;;;;;5076544;28;20049;-78
2022/06/09 14:45:11;;;;;;;5.18;2.00;;;;;;;;;;5082703;28;20496;-78
2022/06/09 14:47:57;;;;;;;5.22;2.05;;;;;;;;;;5076235;28;20044;-80
2022/06/09 14:50:43;;;;;;;5.80;2.35;;;;;;;;;;5075118;28;20040;-80
2022/06/09 14:53:28;;;;;;;5.10;2.05;;;;;;;;;;5076145;28;20477;-79
2022/06/09 14:56:16;;;;;;;4.97;2.10;;;;;;;;;;5082839;28;20036;-80
2022/06/09 14:59:03;;;;;;;3.92;1.92;;;;;;;;;;5075513;28;20052;-79
2022/06/09 15:01:49;;;;;;;3.63;1.90;;;;;;;;;;5076127;28;20493;-78
2022/06/09 15:04:34;;;;;;;8.75;2.00;;;;;;;;;;5082867;28;20045;-81
2022/06/09 15:07:21;;;;;;;6.28;1.85;;;;;;;;;;5075579;28;20044;-78
2022/06/09 15:10:07;;;;;;;4.70;2.08;;;;;;;;;;5075945;28;20044;-78
2022/06/09 15:12:52;;;;;;;5.68;2.17;;;;;;;;;;5075435;28;20424;-78
2022/06/09 15:15:38;;;;;;;3.92;1.98;;;;;;;;;;5075849;28;20040;-78
2022/06/09 15:18:24;;;;;;;4.68;2.00;;;;;;;;;;5082646;28;20040;-77
2022/06/09 15:21:10;;;;;;;5.35;2.15;;;;;;;;;;5075905;28;20044;-78
2022/06/09 15:23:55;;;;;;;6.53;2.22;;;;;;;;;;5075769;28;20485;-79
2022/06/09 15:26:41;;;;;;;4.53;2.00;;;;;;;;;;5076150;28;20049;-78
2022/06/09 15:29:26;;;;;;;5.15;2.10;;;;;;;;;;5075521;28;20485;-83
2022/06/09 15:32:12;;;;;;;7.40;1.85;;;;;;;;;;5075912;28;20470;-78
2022/06/09 15:34:57;;;;;;;5.88;2.20;;;;;;;;;;5085805;22;20048;-77
2022/06/09 15:37:46;;;;;;;2.20;1.70;;;;;;;;;;5062257;28;20037;-77
2022/06/09 15:40:36;;;;;;;4.70;2.17;;;;;;;;;;5055828;28;20402;-74
2022/06/09 15:43:21;;;;;;;6.05;2.17;;;;;;;;;;5061422;28;20041;-77
2022/06/09 15:46:09;;;;;;;6.45;2.13;;;;;;;;;;5055081;28;20390;-77
2022/06/09 15:48:54;;;;;;;6.28;2.20;;;;;;;;;;5054119;28;20057;-77
2022/06/09 15:51:44;;;;;;;7.25;2.45;;;;;;;;;;5061141;28;20041;-77
2022/06/09 15:54:30;;;;;;;8.40;2.40;;;;;;;;;;5054947;28;20041;-75
2022/06/09 15:57:16;;;;;;;5.75;2.45;;;;;;;;;;5060818;28;20045;-78
2022/06/09 16:00:04;;;;;;;7.15;2.17;;;;;;;;;;5055193;28;20053;-76
2022/06/09 16:02:49;;;;;;;4.43;2.40;;;;;;;;;;5055201;28;20048;-75
2022/06/09 16:05:37;;;;;;;8.05;2.13;;;;;;;;;;5061769;28;20048;-75
2022/06/09 16:08:23;;;;;;;4.45;1.20;;;;;;;;;;5061156;28;20049;-76
2022/06/09 16:11:11;;;;;;;9.90;1.50;;;;;;;;;;5061691;22;20049;-75
2022/06/09 16:13:58;;;;;;;4.10;1.60;;;;;;;;;;5054986;28;20041;-76
2022/06/09 16:16:46;;;;;;;4.13;1.30;;;;;;;;;;5054477;28;20044;-75
2022/06/09 16:19:32;;;;;;;4.38;1.80;;;;;;;;;;5054436;28;20045;-75
2022/06/09 16:22:17;;;;;;;4.07;1.75;;;;;;;;;;5054561;28;20049;-75
2022/06/09 16:25:04;;;;;;;5.70;1.65;;;;;;;;;;5053665;28;20044;-76
2022/06/09 16:27:51;;;;;;;1.42;1.20;;;;;;;;;;5061300;28;20049;-77
2022/06/09 16:30:36;;;;;;;2.50;1.38;;;;;;;;;;5045488;28;20389;-75
2022/06/09 16:33:22;;;;;;;6.05;1.63;;;;;;;;;;5053626;28;20037;-75
2022/06/09 16:36:08;;;;;;;5.47;1.75;;;;;;;;;;5054347;28;20044;-75
2022/06/09 16:38:53;;;;;;;3.50;1.70;;;;;;;;;;5059852;28;20413;-78
2022/06/09 16:41:39;;;;;;;4.13;1.88;;;;;;;;;;5061442;28;20053;-80
2022/06/09 16:44:25;;;;;;;5.00;3.22;;;;;;;;;;5054581;28;20390;-80
2022/06/09 16:47:10;;;;;;;2.42;1.95;;;;;;;;;;5061000;28;20045;-79
2022/06/09 16:49:55;;;;;;;5.15;2.83;;;;;;;;;;5038795;28;20049;-77
2022/06/09 16:52:42;;;;;;;6.80;3.72;;;;;;;;;;5053665;28;20056;-77
2022/06/09 16:55:28;;;;;;;16.25;6.10;;;;;;;;;;5061268;28;20049;-76
2022/06/09 16:58:14;;;;;;;14.50;6.95;;;;;;;;;;5061460;28;20045;-77
2022/06/09 17:01:04;;;;;;;4.72;2.38;;;;;;;;;;5053635;28;20044;-76
2022/06/09 17:03:49;;;;;;;5.68;3.08;;;;;;;;;;5054574;28;20049;-77
2022/06/09 17:06:38;;;;;;;9.75;3.45;;;;;;;;;;5054748;28;20481;-77
2022/06/09 17:09:25;;;;;;;9.02;3.50;;;;;;;;;;5054221;28;20049;-77
2022/06/09 17:12:13;;;;;;;7.72;3.47;;;;;;;;;;5054641;28;20053;-77
2022/06/09 17:15:01;;;;;;;3.03;2.70;;;;;;;;;;5053797;28;20036;-77
2022/06/09 17:17:46;;;;;;;6.68;3.63;;;;;;;;;;5054392;28;20044;-77
2022/06/09 17:20:35;;;;;;;14.48;6.70;;;;;;;;;;5039685;28;20053;-78